INFOJET
ProWeather 2





KMCC METAR and TAF
KMCC 180315Z AUTO 00000KT 9SM CLR 18/01 A3004 RMK AO2


RELOAD KMCC METAR/TAF

Go to KMCC METAR Flt Ctgry

TAF decoder (NWS)

METAR decoder (WKPDA)

METAR code library (NWS)



AC 00-6B - Aviation Weather (FAA AC)

AC 00-24C - Thunderstorms (FAA AC)

AC 00-45H - Aviation Weather Services (FAA AC)



NTSB Wthr Pres (CmrnAirPk-O61 Dnsty Alt A36 Tkoff Crsh at 11min)



IJT Hme